Time;durP1;ratioP1;P1;durP2;ratioP2;P2;SDS_P1;SDS_P2;PMS_P1;PMS_P2;Temp;Humidity;BMP_temperature;BMP_pressure;BME280_temperature;BME280_humidity;BME280_pressure;Samples;Min_cycle;Max_cycle;Signal;HPM_P1;HPM_P2
2022/01/16 00:05:15;;;;;;;0.00;0.00;;;;;24.70;100226.00;;;;5066816;28;20039;-74
2022/01/16 00:07:45;;;;;;;0.00;0.00;;;;;24.70;100242.00;;;;5066580;28;20060;-75
2022/01/16 00:10:17;;;;;;;0.00;0.00;;;;;24.70;100230.00;;;;5066061;28;20052;-75
2022/01/16 00:12:48;;;;;;;0.00;0.00;;;;;24.60;100249.00;;;;5066515;28;20543;-75
2022/01/16 00:15:21;;;;;;;0.00;0.00;;;;;24.60;100253.00;;;;5066022;28;20045;-75
2022/01/16 00:20:34;;;;;;;0.00;0.00;;;;;24.50;100257.00;;;;5066849;28;20044;-75
2022/01/16 00:23:06;;;;;;;0.00;0.00;;;;;24.50;100269.00;;;;5066547;28;20051;-75
2022/01/16 00:25:36;;;;;;;0.00;0.00;;;;;24.50;100266.00;;;;5066371;28;20066;-75
2022/01/16 00:28:05;;;;;;;0.00;0.00;;;;;24.50;100262.00;;;;5066135;28;20051;-74
2022/01/16 00:30:35;;;;;;;0.00;0.00;;;;;24.50;100250.00;;;;5066010;28;20059;-75
2022/01/16 00:33:04;;;;;;;0.00;0.00;;;;;24.40;100271.00;;;;5081540;28;20491;-75
2022/01/16 00:35:33;;;;;;;0.00;0.00;;;;;24.30;100264.00;;;;5066406;28;20049;-75
2022/01/16 00:38:03;;;;;;;0.00;0.00;;;;;24.30;100270.00;;;;5065645;28;20049;-75
2022/01/16 00:40:32;;;;;;;0.00;0.00;;;;;24.30;100273.00;;;;5066113;28;20048;-74
2022/01/16 00:43:03;;;;;;;0.00;0.00;;;;;24.30;100266.00;;;;5065986;28;20102;-74
2022/01/16 00:45:35;;;;;;;;;;;;;24.30;100268.00;;;;5066949;28;20120;-75
2022/01/16 00:48:06;;;;;;;0.00;0.00;;;;;24.50;100263.00;;;;5066071;28;19924;-75
2022/01/16 00:50:36;;;;;;;0.00;0.00;;;;;24.50;100279.00;;;;5065484;28;20075;-75
2022/01/16 00:53:06;;;;;;;0.00;0.00;;;;;24.50;100281.00;;;;5065403;28;20503;-74
2022/01/16 00:55:38;;;;;;;0.00;0.00;;;;;24.40;100283.00;;;;5065866;28;20048;-74
2022/01/16 00:58:08;;;;;;;0.00;0.00;;;;;24.40;100266.00;;;;5065597;28;20060;-74
2022/01/16 01:00:38;;;;;;;0.00;0.00;;;;;24.40;100276.00;;;;5065582;28;20048;-74
2022/01/16 01:03:08;;;;;;;0.00;0.00;;;;;24.40;100274.00;;;;5065705;28;20059;-77
2022/01/16 01:05:37;;;;;;;0.00;0.00;;;;;24.30;100284.00;;;;5066197;28;20752;-75
2022/01/16 01:08:08;;;;;;;0.00;0.00;;;;;24.20;100279.00;;;;5065384;28;20452;-74
2022/01/16 01:10:40;;;;;;;0.00;0.00;;;;;24.10;100285.00;;;;5065616;28;20064;-74
2022/01/16 01:13:20;;;;;;;0.00;0.00;;;;;24.10;100280.00;;;;5065811;28;20462;-74
2022/01/16 01:15:59;;;;;;;0.00;0.00;;;;;24.00;100283.00;;;;5068754;28;20115;-74
2022/01/16 01:18:30;;;;;;;0.00;0.00;;;;;24.10;100278.00;;;;5068677;28;20368;-74
2022/01/16 01:21:04;;;;;;;0.00;0.00;;;;;24.00;100291.00;;;;5069163;28;20056;-74
2022/01/16 01:23:34;;;;;;;0.00;0.00;;;;;24.00;100276.00;;;;5069474;28;20055;-75
2022/01/16 01:26:03;;;;;;;0.00;0.00;;;;;24.00;100285.00;;;;5068597;28;20040;-75
2022/01/16 01:28:33;;;;;;;0.00;0.00;;;;;24.00;100278.00;;;;5068885;28;20094;-74
2022/01/16 01:31:02;;;;;;;0.00;0.00;;;;;23.90;100265.00;;;;5068781;28;20097;-74
2022/01/16 01:33:32;;;;;;;0.00;0.00;;;;;23.90;100275.00;;;;5067684;28;20052;-74
2022/01/16 01:36:02;;;;;;;0.00;0.00;;;;;23.80;100269.00;;;;5067881;28;20037;-74
2022/01/16 01:38:31;;;;;;;0.00;0.00;;;;;23.90;100273.00;;;;5068797;28;20055;-74
2022/01/16 01:41:00;;;;;;;0.00;0.00;;;;;23.90;100279.00;;;;5068520;28;20500;-74
2022/01/16 01:51:44;;;;;;;0.00;0.00;;;;;23.80;100268.00;;;;5067155;28;20063;-74
2022/01/16 01:54:16;;;;;;;0.00;0.00;;;;;23.70;100267.00;;;;5068663;28;20414;-74
2022/01/16 01:56:46;;;;;;;0.00;0.00;;;;;23.70;100264.00;;;;5068542;28;20044;-74
2022/01/16 01:59:16;;;;;;;0.00;0.00;;;;;23.60;100259.00;;;;5066467;28;20063;-74
2022/01/16 02:01:46;;;;;;;0.00;0.00;;;;;23.70;100266.00;;;;5068553;28;20044;-74
2022/01/16 02:04:15;;;;;;;0.00;0.00;;;;;23.70;100266.00;;;;5068377;28;20044;-75
2022/01/16 02:06:45;;;;;;;0.00;0.00;;;;;23.70;100265.00;;;;5068051;28;20049;-75
2022/01/16 02:09:15;;;;;;;0.00;0.00;;;;;23.70;100261.00;;;;5066620;28;20431;-75
2022/01/16 02:11:46;;;;;;;0.00;0.00;;;;;23.70;100244.00;;;;5068464;28;20720;-75
2022/01/16 02:36:33;;;;;;;0.00;0.00;;;;;23.90;100217.00;;;;5067866;28;20040;-76
2022/01/16 02:39:12;;;;;;;0.00;0.00;;;;;23.90;100216.00;;;;5066289;28;20052;-75
2022/01/16 02:41:45;;;;;;;0.00;0.00;;;;;23.90;100222.00;;;;5067905;28;20090;-74
2022/01/16 02:44:23;;;;;;;0.00;0.00;;;;;23.90;100191.00;;;;5067009;28;20052;-74
2022/01/16 02:46:55;;;;;;;0.00;0.00;;;;;24.00;100197.00;;;;5067856;28;20047;-75
2022/01/16 02:49:31;;;;;;;0.00;0.00;;;;;24.00;100197.00;;;;5067050;28;20040;-75
2022/01/16 02:52:05;;;;;;;0.00;0.00;;;;;23.90;100186.00;;;;5067383;28;20071;-74
2022/01/16 02:54:38;;;;;;;0.00;0.00;;;;;24.00;100197.00;;;;5067561;28;20462;-75
2022/01/16 02:57:10;;;;;;;0.00;0.00;;;;;23.90;100189.00;;;;5067474;28;20533;-75
2022/01/16 02:59:50;;;;;;;0.00;0.00;;;;;23.90;100193.00;;;;5066565;28;20040;-75
2022/01/16 03:02:22;;;;;;;0.05;0.05;;;;;23.90;100181.00;;;;5067299;28;20039;-75
2022/01/16 03:04:53;;;;;;;0.00;0.00;;;;;23.80;100180.00;;;;5066897;28;20047;-75
2022/01/16 03:07:23;;;;;;;;;;;;;23.80;100193.00;;;;5066298;28;20040;-74
2022/01/16 03:12:55;;;;;;;0.00;0.00;;;;;23.70;100194.00;;;;5067189;28;20047;-74
2022/01/16 03:15:25;;;;;;;0.00;0.00;;;;;23.60;100191.00;;;;5067456;28;20525;-75
2022/01/16 03:23:23;;;;;;;0.00;0.00;;;;;23.70;100200.00;;;;5067155;28;20070;-75
2022/01/16 03:25:52;;;;;;;;;;;;;23.60;100192.00;;;;5067179;28;20052;-75
2022/01/16 03:28:25;;;;;;;0.00;0.00;;;;;23.60;100182.00;;;;5067127;28;19924;-75
2022/01/16 03:30:55;;;;;;;0.00;0.00;;;;;23.70;100187.00;;;;5066091;28;20078;-75
2022/01/16 03:33:24;;;;;;;0.00;0.00;;;;;23.80;100173.00;;;;5067733;28;20080;-75
2022/01/16 03:35:55;;;;;;;0.00;0.00;;;;;23.80;100180.00;;;;5066813;28;20492;-75
2022/01/16 03:38:24;;;;;;;0.00;0.00;;;;;23.90;100177.00;;;;5066926;28;20037;-75
2022/01/16 03:40:53;;;;;;;0.00;0.00;;;;;23.80;100168.00;;;;5067041;28;20538;-75
2022/01/16 03:43:23;;;;;;;0.00;0.00;;;;;23.80;100158.00;;;;5066538;28;20094;-75
2022/01/16 03:45:52;;;;;;;0.00;0.00;;;;;23.80;100158.00;;;;5066544;28;20045;-75
2022/01/16 03:48:22;;;;;;;0.00;0.00;;;;;23.70;100152.00;;;;5066844;28;20098;-76
2022/01/16 03:50:51;;;;;;;0.00;0.00;;;;;23.70;100147.00;;;;5066400;28;20510;-76
2022/01/16 03:53:21;;;;;;;0.10;0.10;;;;;23.70;100143.00;;;;5066734;28;20106;-75
2022/01/16 03:55:51;;;;;;;0.00;0.00;;;;;23.80;100151.00;;;;5066180;28;20048;-76
2022/01/16 03:58:21;;;;;;;0.00;0.00;;;;;23.70;100132.00;;;;5066522;28;20492;-75
2022/01/16 04:00:50;;;;;;;0.00;0.00;;;;;23.60;100123.00;;;;5066017;28;20299;-75
2022/01/16 04:03:20;;;;;;;0.10;0.10;;;;;23.60;100117.00;;;;5066504;28;20044;-75
2022/01/16 04:05:50;;;;;;;0.00;0.00;;;;;23.50;100118.00;;;;5066866;28;20052;-76
2022/01/16 04:08:19;;;;;;;0.00;0.00;;;;;23.50;100120.00;;;;5066062;28;20114;-75
2022/01/16 04:10:48;;;;;;;0.00;0.00;;;;;23.40;100117.00;;;;5064887;28;20045;-75
2022/01/16 04:13:20;;;;;;;0.00;0.00;;;;;23.30;100130.00;;;;5066529;28;20385;-76
2022/01/16 04:15:50;;;;;;;0.00;0.00;;;;;23.30;100103.00;;;;5066842;28;20048;-76
2022/01/16 04:18:19;;;;;;;0.00;0.00;;;;;23.40;100100.00;;;;5067270;28;20040;-75
2022/01/16 04:20:49;;;;;;;0.00;0.00;;;;;23.40;100099.00;;;;5066056;28;20571;-75
2022/01/16 04:23:19;;;;;;;0.00;0.00;;;;;23.40;100101.00;;;;5064858;28;20048;-75
2022/01/16 04:25:48;;;;;;;0.00;0.00;;;;;23.30;100100.00;;;;5066216;28;20591;-75
2022/01/16 04:28:23;;;;;;;0.00;0.00;;;;;23.30;100096.00;;;;5066035;28;20071;-75
2022/01/16 04:30:53;;;;;;;0.00;0.00;;;;;23.40;100086.00;;;;5064095;28;20052;-76
2022/01/16 04:33:22;;;;;;;0.00;0.00;;;;;23.30;100075.00;;;;5062514;28;20865;-75
2022/01/16 04:35:51;;;;;;;0.00;0.00;;;;;23.30;100090.00;;;;5062619;28;20048;-75
2022/01/16 04:38:21;;;;;;;0.00;0.00;;;;;23.30;100077.00;;;;5064840;28;20044;-75
2022/01/16 04:43:48;;;;;;;0.00;0.00;;;;;23.30;100067.00;;;;5065694;28;20048;-75
2022/01/16 04:46:23;;;;;;;0.00;0.00;;;;;23.30;100062.00;;;;5065968;28;20052;-75
2022/01/16 04:48:55;;;;;;;0.00;0.00;;;;;23.30;100053.00;;;;5069734;28;20470;-75
2022/01/16 04:51:26;;;;;;;0.00;0.00;;;;;23.20;100054.00;;;;5069448;28;20086;-75
2022/01/16 04:53:57;;;;;;;0.00;0.00;;;;;23.20;100053.00;;;;5069615;28;20454;-75
2022/01/16 04:56:26;;;;;;;0.00;0.00;;;;;23.30;100041.00;;;;5069376;28;20044;-75
2022/01/16 04:58:56;;;;;;;0.00;0.00;;;;;23.40;100017.00;;;;5068471;28;20044;-75
2022/01/16 05:01:25;;;;;;;0.00;0.00;;;;;23.40;100028.00;;;;5070330;28;20048;-75
2022/01/16 05:03:55;;;;;;;0.00;0.00;;;;;23.40;100020.00;;;;5070057;28;20047;-76
2022/01/16 05:06:24;;;;;;;0.00;0.00;;;;;23.30;100024.00;;;;5070420;28;20062;-75
2022/01/16 05:08:54;;;;;;;0.00;0.00;;;;;23.30;100008.00;;;;5068942;28;20040;-76
2022/01/16 05:11:26;;;;;;;0.00;0.00;;;;;23.40;100026.00;;;;5068691;28;20060;-76
2022/01/16 05:16:38;;;;;;;0.00;0.00;;;;;23.30;100018.00;;;;5069143;28;20052;-76
2022/01/16 05:19:12;;;;;;;0.00;0.00;;;;;23.30;100001.00;;;;5068860;28;20084;-76
2022/01/16 05:21:42;;;;;;;0.00;0.00;;;;;23.20;100009.00;;;;5069483;28;20036;-76
2022/01/16 05:24:12;;;;;;;0.00;0.00;;;;;23.20;99995.00;;;;5068934;28;20068;-75
2022/01/16 05:26:43;;;;;;;0.00;0.00;;;;;23.20;99991.00;;;;5069780;28;20766;-75
2022/01/16 05:29:13;;;;;;;;;;;;;23.20;99994.00;;;;5070077;28;20616;-75
2022/01/16 05:31:44;;;;;;;0.00;0.00;;;;;23.20;100003.00;;;;5068759;28;20395;-75
2022/01/16 05:34:18;;;;;;;0.00;0.00;;;;;23.20;99978.00;;;;5069420;28;20131;-75
2022/01/16 05:36:47;;;;;;;0.00;0.00;;;;;23.20;99996.00;;;;5069543;28;20055;-75
2022/01/16 05:39:17;;;;;;;0.00;0.00;;;;;23.20;99987.00;;;;5069132;28;20855;-75
2022/01/16 05:41:46;;;;;;;0.00;0.00;;;;;23.20;99980.00;;;;5069331;28;20036;-75
2022/01/16 05:44:16;;;;;;;0.15;0.05;;;;;23.10;99971.00;;;;5068263;28;20078;-75
2022/01/16 05:46:46;;;;;;;0.00;0.00;;;;;23.10;99954.00;;;;5069499;28;20063;-75
2022/01/16 05:49:15;;;;;;;0.00;0.00;;;;;23.10;99949.00;;;;5069164;28;20052;-75
2022/01/16 05:51:45;;;;;;;0.00;0.00;;;;;23.10;99952.00;;;;5068790;28;20052;-75
2022/01/16 05:54:14;;;;;;;0.00;0.00;;;;;23.10;99961.00;;;;5068508;28;20056;-75
2022/01/16 05:56:44;;;;;;;0.00;0.00;;;;;23.10;99957.00;;;;5068460;28;20044;-75
2022/01/16 05:59:13;;;;;;;0.00;0.00;;;;;23.20;99982.00;;;;5067529;28;20049;-76
2022/01/16 06:01:43;;;;;;;0.00;0.00;;;;;23.10;99977.00;;;;5069555;28;20067;-74
2022/01/16 06:04:12;;;;;;;0.00;0.00;;;;;23.10;99957.00;;;;5068109;28;20056;-75
2022/01/16 06:06:41;;;;;;;0.00;0.00;;;;;23.00;99968.00;;;;5068517;28;20515;-75
2022/01/16 06:09:11;;;;;;;0.00;0.00;;;;;23.10;99966.00;;;;5067766;28;20475;-75
2022/01/16 06:11:40;;;;;;;0.00;0.00;;;;;23.10;99944.00;;;;5068552;28;20079;-75
2022/01/16 06:14:10;;;;;;;0.00;0.00;;;;;23.00;99909.00;;;;5068554;28;20048;-74
2022/01/16 06:16:39;;;;;;;0.00;0.00;;;;;23.00;99891.00;;;;5068347;28;20052;-75
2022/01/16 06:19:08;;;;;;;0.00;0.00;;;;;23.10;99893.00;;;;5068185;28;20550;-75
2022/01/16 06:21:38;;;;;;;0.00;0.00;;;;;23.10;99882.00;;;;5067594;28;20102;-75
2022/01/16 06:24:07;;;;;;;0.00;0.00;;;;;23.00;99906.00;;;;5068327;28;20110;-74
2022/01/16 06:26:36;;;;;;;0.00;0.00;;;;;23.00;99911.00;;;;5068127;28;20056;-74
2022/01/16 06:29:06;;;;;;;0.00;0.00;;;;;23.00;99939.00;;;;5067806;28;20075;-74
2022/01/16 06:31:36;;;;;;;0.00;0.00;;;;;22.90;99927.00;;;;5067914;28;20052;-75
2022/01/16 06:34:06;;;;;;;0.00;0.00;;;;;22.90;99928.00;;;;5067629;28;20098;-75
2022/01/16 06:36:36;;;;;;;0.00;0.00;;;;;22.80;99938.00;;;;5067996;28;20048;-75
2022/01/16 06:39:08;;;;;;;0.00;0.00;;;;;22.80;99927.00;;;;5067720;28;20048;-74
2022/01/16 06:41:38;;;;;;;0.00;0.00;;;;;22.80;99944.00;;;;5067906;28;20579;-75
2022/01/16 06:44:08;;;;;;;0.00;0.00;;;;;22.80;99946.00;;;;5066395;28;20466;-75
2022/01/16 06:46:37;;;;;;;0.00;0.00;;;;;22.80;99926.00;;;;5067902;28;20053;-75
2022/01/16 06:49:07;;;;;;;0.00;0.00;;;;;22.80;99901.00;;;;5067502;28;20044;-74
2022/01/16 06:51:37;;;;;;;0.00;0.00;;;;;22.80;99914.00;;;;5067327;28;20140;-75
2022/01/16 06:54:06;;;;;;;0.00;0.00;;;;;22.70;99922.00;;;;5067120;28;20500;-75
2022/01/16 06:56:36;;;;;;;0.00;0.00;;;;;22.70;99925.00;;;;5066955;28;20156;-75
2022/01/16 06:59:05;;;;;;;0.00;0.00;;;;;22.80;99930.00;;;;5066910;28;20530;-76
2022/01/16 07:01:50;;;;;;;0.00;0.00;;;;;22.80;99920.00;;;;5067570;28;20068;-76
2022/01/16 07:04:19;;;;;;;0.00;0.00;;;;;22.80;99921.00;;;;5067389;28;20078;-77
2022/01/16 07:06:49;;;;;;;0.00;0.00;;;;;22.80;99934.00;;;;5067295;28;20514;-77
2022/01/16 07:09:18;;;;;;;0.00;0.00;;;;;22.80;99929.00;;;;5067431;28;20380;-75
2022/01/16 07:11:48;;;;;;;0.00;0.00;;;;;22.80;99929.00;;;;5066409;28;20036;-76
2022/01/16 07:14:17;;;;;;;0.00;0.00;;;;;22.80;99925.00;;;;5067279;28;20037;-77
2022/01/16 07:16:46;;;;;;;0.00;0.00;;;;;22.80;99923.00;;;;5066561;28;20127;-76
2022/01/16 07:19:16;;;;;;;0.00;0.00;;;;;22.80;99940.00;;;;5067342;28;20048;-78
2022/01/16 07:21:45;;;;;;;0.00;0.00;;;;;22.70;99939.00;;;;5066956;28;20056;-78
2022/01/16 07:24:16;;;;;;;1.00;0.20;;;;;22.80;99940.00;;;;5066996;28;20044;-79
2022/01/16 07:26:45;;;;;;;0.00;0.00;;;;;22.90;99947.00;;;;5066496;28;20094;-78
2022/01/16 07:29:15;;;;;;;0.00;0.00;;;;;22.80;99948.00;;;;5065133;28;20044;-77
2022/01/16 07:31:46;;;;;;;0.00;0.00;;;;;22.70;99945.00;;;;5067216;28;20049;-76
2022/01/16 07:34:16;;;;;;;0.00;0.00;;;;;22.70;99945.00;;;;5066644;28;20135;-74
2022/01/16 07:36:45;;;;;;;0.00;0.00;;;;;22.60;99950.00;;;;5065830;28;20728;-78
2022/01/16 07:39:15;;;;;;;0.00;0.00;;;;;22.60;99947.00;;;;5066727;28;20032;-75
2022/01/16 07:41:44;;;;;;;0.00;0.00;;;;;22.60;99956.00;;;;5066552;28;20048;-74
2022/01/16 07:44:19;;;;;;;0.00;0.00;;;;;22.60;99950.00;;;;5065100;28;20092;-77
2022/01/16 07:46:49;;;;;;;0.00;0.00;;;;;22.60;99947.00;;;;5066699;28;20407;-78
2022/01/16 07:49:18;;;;;;;0.00;0.00;;;;;22.60;99938.00;;;;5066381;28;20079;-76
2022/01/16 07:51:48;;;;;;;0.00;0.00;;;;;22.60;99950.00;;;;5066783;28;20057;-76
2022/01/16 07:54:18;;;;;;;0.00;0.00;;;;;22.60;99944.00;;;;5066258;28;20062;-75
2022/01/16 07:56:49;;;;;;;0.00;0.00;;;;;22.60;99952.00;;;;5066465;28;20578;-75
2022/01/16 07:59:18;;;;;;;0.00;0.00;;;;;22.50;99954.00;;;;5064746;28;20052;-75
2022/01/16 08:01:47;;;;;;;0.00;0.00;;;;;22.50;99949.00;;;;5066119;28;20427;-74
2022/01/16 08:04:17;;;;;;;0.00;0.00;;;;;22.50;99967.00;;;;5066362;28;20557;-75
2022/01/16 08:06:46;;;;;;;0.00;0.00;;;;;22.50;99943.00;;;;5066332;28;20044;-77
2022/01/16 08:09:16;;;;;;;0.00;0.00;;;;;22.50;99943.00;;;;5066360;28;20048;-74
2022/01/16 08:11:46;;;;;;;0.00;0.00;;;;;22.50;99946.00;;;;5066182;28;20075;-74
2022/01/16 08:14:15;;;;;;;0.00;0.00;;;;;22.50;99950.00;;;;5066038;28;20063;-75
2022/01/16 08:16:45;;;;;;;0.00;0.00;;;;;22.50;99950.00;;;;5066018;28;20037;-76
2022/01/16 08:19:14;;;;;;;0.00;0.00;;;;;22.50;99941.00;;;;5066059;28;20090;-78
2022/01/16 08:21:43;;;;;;;0.00;0.00;;;;;22.50;99960.00;;;;5066594;28;20577;-76
2022/01/16 08:24:13;;;;;;;0.00;0.00;;;;;22.50;99949.00;;;;5070297;28;20046;-76
2022/01/16 08:26:42;;;;;;;0.00;0.00;;;;;22.40;99951.00;;;;5069516;28;20048;-73
2022/01/16 08:29:13;;;;;;;0.00;0.00;;;;;22.40;99963.00;;;;5070163;28;20048;-75
2022/01/16 08:31:42;;;;;;;0.00;0.00;;;;;22.40;99968.00;;;;5069920;28;20834;-76
2022/01/16 08:34:12;;;;;;;0.00;0.00;;;;;22.40;99964.00;;;;5069740;28;20045;-77
2022/01/16 08:36:41;;;;;;;0.00;0.00;;;;;22.50;99953.00;;;;5070512;28;20443;-74
2022/01/16 08:39:11;;;;;;;0.00;0.00;;;;;22.50;99967.00;;;;5069937;28;20574;-77
2022/01/16 08:41:41;;;;;;;0.00;0.00;;;;;22.60;99957.00;;;;5070483;28;20047;-76
2022/01/16 08:44:11;;;;;;;0.00;0.00;;;;;22.70;99968.00;;;;5070007;28;20045;-75
2022/01/16 08:46:41;;;;;;;0.00;0.00;;;;;22.80;99958.00;;;;5070265;28;20504;-78
2022/01/16 08:49:10;;;;;;;0.00;0.00;;;;;22.80;99970.00;;;;5069495;28;20056;-77
2022/01/16 08:51:40;;;;;;;0.00;0.00;;;;;22.90;99961.00;;;;5067984;28;20094;-78
2022/01/16 08:54:10;;;;;;;0.00;0.00;;;;;22.90;99968.00;;;;5068210;28;20086;-80
2022/01/16 08:56:39;;;;;;;0.00;0.00;;;;;23.00;99964.00;;;;5070028;28;20052;-77
2022/01/16 08:59:09;;;;;;;0.00;0.00;;;;;23.00;99962.00;;;;5069602;28;20058;-77
2022/01/16 09:01:38;;;;;;;0.52;0.22;;;;;23.10;99976.00;;;;5067730;28;20496;-77
2022/01/16 09:04:08;;;;;;;0.22;0.22;;;;;23.10;99969.00;;;;5069917;28;20082;-77
2022/01/16 09:06:37;;;;;;;0.00;0.00;;;;;23.10;99967.00;;;;5068693;28;20114;-75
2022/01/16 09:09:09;;;;;;;0.20;0.10;;;;;23.20;99963.00;;;;5069755;28;20044;-76
2022/01/16 09:11:39;;;;;;;0.00;0.00;;;;;23.30;99964.00;;;;5069310;28;20047;-77
2022/01/16 09:14:09;;;;;;;0.00;0.00;;;;;23.30;99968.00;;;;5069710;28;20040;-76
2022/01/16 09:16:39;;;;;;;0.00;0.00;;;;;23.30;99983.00;;;;5069219;28;20037;-76
2022/01/16 09:19:08;;;;;;;0.00;0.00;;;;;23.30;99987.00;;;;5068567;28;20048;-78
2022/01/16 09:21:38;;;;;;;0.00;0.00;;;;;23.30;99996.00;;;;5069184;28;20090;-75
2022/01/16 09:24:08;;;;;;;0.00;0.00;;;;;23.40;99999.00;;;;5068951;28;20074;-74
2022/01/16 09:26:37;;;;;;;0.00;0.00;;;;;23.60;100002.00;;;;5067953;28;20057;-75
2022/01/16 09:29:06;;;;;;;0.00;0.00;;;;;23.60;99985.00;;;;5069439;28;20423;-77
2022/01/16 09:31:36;;;;;;;0.00;0.00;;;;;23.70;99994.00;;;;5069007;28;20036;-74
2022/01/16 09:34:05;;;;;;;0.00;0.00;;;;;23.80;99992.00;;;;5067916;28;20056;-76
2022/01/16 09:36:35;;;;;;;0.00;0.00;;;;;24.00;99991.00;;;;5068349;28;20040;-76
2022/01/16 09:39:05;;;;;;;0.00;0.00;;;;;24.10;99987.00;;;;5068937;28;20083;-78
2022/01/16 09:41:34;;;;;;;0.00;0.00;;;;;24.20;99988.00;;;;5068242;28;20056;-77
2022/01/16 09:44:04;;;;;;;0.00;0.00;;;;;25.40;99918.00;;;;5067809;28;20049;-76
2022/01/16 09:46:35;;;;;;;0.00;0.00;;;;;28.70;99865.00;;;;5084323;28;20121;-74
2022/01/16 09:49:05;;;;;;;0.00;0.00;;;;;27.50;99969.00;;;;5068762;28;20040;-78
2022/01/16 09:51:35;;;;;;;0.00;0.00;;;;;26.50;99985.00;;;;5068950;28;20052;-77
2022/01/16 09:54:05;;;;;;;0.10;0.10;;;;;26.10;99978.00;;;;5068253;28;20040;-77
2022/01/16 09:56:35;;;;;;;0.00;0.00;;;;;26.00;99992.00;;;;5068961;28;20503;-75
2022/01/16 09:59:07;;;;;;;0.00;0.00;;;;;26.30;99990.00;;;;5068487;28;20036;-77
2022/01/16 10:01:36;;;;;;;0.00;0.00;;;;;26.50;99979.00;;;;5068741;28;20051;-76
2022/01/16 10:04:30;;;;;;;0.00;0.00;;;;;27.20;99962.00;;;;5068055;28;20064;-76
2022/01/16 10:07:03;;;;;;;0.00;0.00;;;;;29.60;99899.00;;;;5068064;28;20078;-77
2022/01/16 10:09:38;;;;;;;0.00;0.00;;;;;30.60;99871.00;;;;5068052;28;20048;-77
2022/01/16 10:12:19;;;;;;;0.00;0.00;;;;;30.20;99975.00;;;;5068564;28;20074;-79
2022/01/16 10:14:49;;;;;;;0.00;0.00;;;;;28.20;100003.00;;;;5068927;28;20399;-78
2022/01/16 10:17:21;;;;;;;0.00;0.00;;;;;27.30;100006.00;;;;5068231;28;20052;-79
2022/01/16 10:20:07;;;;;;;0.00;0.00;;;;;27.10;100004.00;;;;5068415;28;20051;-77
2022/01/16 10:22:40;;;;;;;0.08;0.08;;;;;27.10;100010.00;;;;5067942;28;20076;-77
2022/01/16 10:25:12;;;;;;;0.63;0.20;;;;;27.10;100015.00;;;;5068107;28;20063;-77
2022/01/16 10:27:44;;;;;;;0.00;0.00;;;;;27.20;100013.00;;;;5068321;28;20040;-75
2022/01/16 10:30:17;;;;;;;0.00;0.00;;;;;27.20;100014.00;;;;5068390;28;20082;-77
2022/01/16 10:32:49;;;;;;;0.00;0.00;;;;;27.40;100013.00;;;;5067818;28;20041;-78
2022/01/16 10:35:24;;;;;;;0.00;0.00;;;;;28.90;99975.00;;;;5068215;28;20047;-76
2022/01/16 10:37:57;;;;;;;0.00;0.00;;;;;29.70;99915.00;;;;5068052;28;20504;-78
2022/01/16 10:40:36;;;;;;;0.00;0.00;;;;;33.20;99856.00;;;;5083260;28;20070;-78
2022/01/16 10:43:13;;;;;;;0.10;0.00;;;;;36.00;99838.00;;;;5067363;28;20195;-79
2022/01/16 10:45:44;;;;;;;0.00;0.00;;;;;35.50;99915.00;;;;5067626;28;20047;-75
2022/01/16 10:48:14;;;;;;;0.00;0.00;;;;;32.70;99964.00;;;;5067377;28;20565;-76
2022/01/16 10:50:47;;;;;;;0.00;0.00;;;;;32.30;99981.00;;;;5067257;28;20040;-76
2022/01/16 10:53:20;;;;;;;0.00;0.00;;;;;31.00;100005.00;;;;5067520;28;20037;-75
2022/01/16 10:55:51;;;;;;;0.00;0.00;;;;;30.60;100008.00;;;;5067298;28;20040;-78
2022/01/16 10:58:25;;;;;;;0.00;0.00;;;;;31.50;99995.00;;;;5066762;28;20039;-79
2022/01/16 11:01:03;;;;;;;0.00;0.00;;;;;31.60;100001.00;;;;5067146;28;20140;-78
2022/01/16 11:03:46;;;;;;;0.00;0.00;;;;;31.20;100011.00;;;;5067174;28;20131;-79
2022/01/16 11:06:21;;;;;;;0.00;0.00;;;;;31.70;99995.00;;;;5066647;28;20071;-77
2022/01/16 11:08:52;;;;;;;0.00;0.00;;;;;34.20;99914.00;;;;5066858;28;20115;-80
2022/01/16 11:11:24;;;;;;;0.00;0.00;;;;;38.50;99864.00;;;;5066425;28;20040;-76
2022/01/16 11:13:56;;;;;;;0.00;0.00;;;;;39.80;99865.00;;;;5067479;28;20082;-80
2022/01/16 11:16:26;;;;;;;0.00;0.00;;;;;40.10;99843.00;;;;5066884;28;20037;-78
2022/01/16 11:18:56;;;;;;;0.00;0.00;;;;;40.60;99855.00;;;;5066731;28;20581;-78
2022/01/16 11:21:33;;;;;;;0.00;0.00;;;;;40.70;99845.00;;;;5066987;28;20052;-75
2022/01/16 11:26:44;;;;;;;0.00;0.00;;;;;41.10;99845.00;;;;5067338;28;20483;-76
2022/01/16 11:29:15;;;;;;;200.38;13.38;;;;;41.40;99830.00;;;;5067034;28;20369;-77
2022/01/16 11:31:48;;;;;;;0.00;0.00;;;;;41.00;99840.00;;;;5066260;28;20101;-77
2022/01/16 11:34:18;;;;;;;916.47;118.45;;;;;41.30;99837.00;;;;5066098;28;20048;-79
2022/01/16 11:36:48;;;;;;;0.00;0.00;;;;;41.20;99848.00;;;;5066911;28;20053;-77
2022/01/16 11:39:18;;;;;;;615.08;111.70;;;;;41.00;99858.00;;;;5066609;28;20048;-79
2022/01/16 11:41:52;;;;;;;0.00;0.00;;;;;40.80;99839.00;;;;5066378;28;20055;-78
2022/01/16 11:44:28;;;;;;;0.00;0.00;;;;;41.00;99847.00;;;;5066007;28;20060;-79
2022/01/16 11:46:59;;;;;;;0.00;0.00;;;;;40.90;99859.00;;;;5065898;28;20491;-78
2022/01/16 11:49:43;;;;;;;0.00;0.00;;;;;40.40;99849.00;;;;5065049;28;20052;-79
2022/01/16 11:52:21;;;;;;;0.00;0.00;;;;;39.70;99843.00;;;;5066280;28;20048;-77
2022/01/16 11:54:53;;;;;;;0.00;0.00;;;;;38.80;99849.00;;;;5065907;28;20068;-77
2022/01/16 11:57:31;;;;;;;0.00;0.00;;;;;38.70;99860.00;;;;5065904;28;20555;-83
2022/01/16 12:00:14;;;;;;;0.00;0.00;;;;;38.00;99861.00;;;;5064966;28;20119;-81
2022/01/16 12:02:48;;;;;;;0.20;0.20;;;;;37.40;99872.00;;;;5066146;28;20131;-77
2022/01/16 12:05:26;;;;;;;0.90;0.10;;;;;37.60;99891.00;;;;5064888;28;20071;-78
2022/01/16 12:08:20;;;;;;;0.00;0.00;;;;;37.30;99920.00;;;;5066278;28;20442;-80
2022/01/16 12:10:54;;;;;;;0.10;0.10;;;;;37.20;99958.00;;;;5065754;28;20036;-75
2022/01/16 12:13:43;;;;;;;0.00;0.00;;;;;37.10;99966.00;;;;5065909;28;20599;-77
2022/01/16 12:16:35;;;;;;;0.00;0.00;;;;;37.30;99966.00;;;;5081181;28;20102;-80
2022/01/16 12:19:41;;;;;;;0.00;0.00;;;;;37.10;99970.00;;;;5066689;28;20048;-78
2022/01/16 12:22:14;;;;;;;0.00;0.00;;;;;36.90;99964.00;;;;5063827;28;20055;-77
2022/01/16 12:24:57;;;;;;;0.00;0.00;;;;;37.00;99968.00;;;;5065599;28;20048;-76
2022/01/16 12:27:39;;;;;;;0.00;0.00;;;;;36.80;99966.00;;;;5065642;28;20077;-76
2022/01/16 12:30:13;;;;;;;0.28;0.10;;;;;36.60;99975.00;;;;5066295;28;20041;-77
2022/01/16 12:32:51;;;;;;;0.20;0.20;;;;;36.80;99966.00;;;;5065654;28;20036;-75
2022/01/16 12:35:39;;;;;;;0.00;0.00;;;;;36.80;99970.00;;;;5066261;28;20127;-75
2022/01/16 12:38:20;;;;;;;0.20;0.20;;;;;36.90;99967.00;;;;5065786;28;20119;-75
2022/01/16 12:41:12;;;;;;;0.00;0.00;;;;;37.20;99973.00;;;;5065584;28;20127;-75
2022/01/16 12:43:54;;;;;;;0.15;0.15;;;;;37.60;99973.00;;;;5065680;28;20048;-78
2022/01/16 12:46:32;;;;;;;0.00;0.00;;;;;37.30;99970.00;;;;5065802;28;20051;-75
2022/01/16 12:49:07;;;;;;;1.38;0.10;;;;;37.50;99968.00;;;;5065858;28;20041;-76
2022/01/16 12:51:38;;;;;;;0.10;0.10;;;;;37.70;99971.00;;;;5065914;28;20144;-77
2022/01/16 12:54:16;;;;;;;0.00;0.00;;;;;37.60;99960.00;;;;5065549;28;20051;-77
2022/01/16 12:56:51;;;;;;;0.00;0.00;;;;;37.60;99964.00;;;;5066358;28;20060;-75
2022/01/16 12:59:42;;;;;;;0.30;0.30;;;;;37.90;99955.00;;;;5064197;28;20098;-76
2022/01/16 13:02:12;;;;;;;0.00;0.00;;;;;38.00;99964.00;;;;5066091;28;20041;-77
2022/01/16 13:04:41;;;;;;;;;;;;;38.40;99961.00;;;;5065843;28;20135;-77
2022/01/16 13:07:33;;;;;;;0.00;0.00;;;;;38.20;99969.00;;;;5065574;28;19931;-77
2022/01/16 13:10:04;;;;;;;0.15;0.15;;;;;38.10;99968.00;;;;5068353;28;20047;-77
2022/01/16 13:12:34;;;;;;;3.25;0.28;;;;;38.40;99970.00;;;;5067432;28;20423;-77
2022/01/16 13:15:04;;;;;;;0.00;0.00;;;;;38.40;99958.00;;;;5067470;28;20447;-76
2022/01/16 13:17:34;;;;;;;0.13;0.00;;;;;38.60;99966.00;;;;5069009;28;20063;-79
2022/01/16 13:20:13;;;;;;;0.00;0.00;;;;;38.20;99952.00;;;;5067943;28;20052;-76
2022/01/16 13:22:43;;;;;;;0.03;0.03;;;;;38.00;99962.00;;;;5068517;28;20858;-76
2022/01/16 13:25:12;;;;;;;0.00;0.00;;;;;38.30;99964.00;;;;5069831;28;20040;-76
2022/01/16 13:27:44;;;;;;;0.00;0.00;;;;;38.90;99964.00;;;;5069581;28;20283;-76
2022/01/16 13:30:29;;;;;;;0.00;0.00;;;;;39.00;99960.00;;;;5069303;28;20044;-75